Time;durP1;ratioP1;P1;durP2;ratioP2;P2;SDS_P1;SDS_P2;PMS_P1;PMS_P2;Temp;Humidity;BMP_temperature;BMP_pressure;BME280_temperature;BME280_humidity;BME280_pressure;Samples;Min_cycle;Max_cycle;Signal;HPM_P1;HPM_P2
2022/07/06 00:01:21;;;;;;;5.82;2.55;;;28.20;59.20;;;;;;4962678;28;20202;-78
2022/07/06 00:03:50;;;;;;;6.20;2.50;;;28.10;59.10;;;;;;4964122;28;20780;-76
2022/07/06 00:06:23;;;;;;;6.78;2.60;;;28.10;59.20;;;;;;4954245;28;20189;-76
2022/07/06 00:08:51;;;;;;;6.85;2.95;;;28.10;59.20;;;;;;4957080;28;20713;-76
2022/07/06 00:11:21;;;;;;;10.73;3.05;;;28.10;59.20;;;;;;4952392;28;20217;-78
2022/07/06 00:13:50;;;;;;;6.00;2.83;;;28.10;59.30;;;;;;4957831;28;20194;-79
2022/07/06 00:16:19;;;;;;;8.85;2.83;;;28.10;59.40;;;;;;4957151;28;20655;-77
2022/07/06 00:18:48;;;;;;;7.00;3.35;;;28.00;59.40;;;;;;4948657;28;20215;-77
2022/07/06 00:21:16;;;;;;;8.45;2.90;;;28.00;59.40;;;;;;4952771;28;20190;-76
2022/07/06 00:23:44;;;;;;;8.82;3.60;;;28.00;59.40;;;;;;4954384;28;20198;-77
2022/07/06 00:26:13;;;;;;;4.95;3.03;;;27.90;59.40;;;;;;4956831;28;20194;-76
2022/07/06 00:28:43;;;;;;;10.25;3.30;;;27.90;59.50;;;;;;4961956;28;20205;-77
2022/07/06 00:31:12;;;;;;;9.70;3.03;;;27.90;59.60;;;;;;4955504;28;20596;-77
2022/07/06 00:33:40;;;;;;;5.60;3.03;;;27.90;59.70;;;;;;4963605;28;20273;-76
2022/07/06 00:36:09;;;;;;;10.15;3.08;;;27.80;59.90;;;;;;4963038;28;20186;-78
2022/07/06 00:38:37;;;;;;;4.40;2.33;;;27.80;60.20;;;;;;4963819;28;20248;-76
2022/07/06 00:41:06;;;;;;;11.25;2.60;;;27.80;60.30;;;;;;4955756;28;20206;-77
2022/07/06 00:43:50;;;;;;;6.60;2.75;;;27.70;60.60;;;;;;4957507;28;20298;-77
2022/07/06 00:46:19;;;;;;;6.95;2.42;;;27.70;60.80;;;;;;4958648;28;20205;-77
2022/07/06 00:48:47;;;;;;;4.90;2.40;;;27.70;60.80;;;;;;4958839;28;20225;-77
2022/07/06 00:51:16;;;;;;;4.20;2.40;;;27.70;61.00;;;;;;4959834;28;20221;-78
2022/07/06 00:53:45;;;;;;;10.15;2.85;;;27.70;61.10;;;;;;4957294;28;20216;-83
2022/07/06 00:56:14;;;;;;;4.53;2.40;;;27.70;61.00;;;;;;4952749;28;20212;-77
2022/07/06 00:58:42;;;;;;;3.38;2.20;;;27.70;61.10;;;;;;4957925;28;20198;-77
2022/07/06 01:01:12;;;;;;;5.10;2.65;;;27.60;61.10;;;;;;4961232;28;20197;-77
2022/07/06 01:03:41;;;;;;;5.93;2.20;;;27.60;61.30;;;;;;4962511;28;20226;-77
2022/07/06 01:06:09;;;;;;;4.32;2.40;;;27.60;61.50;;;;;;4963804;28;20198;-78
2022/07/06 01:08:39;;;;;;;5.00;2.65;;;27.60;61.40;;;;;;4961469;28;20194;-78
2022/07/06 01:11:08;;;;;;;4.65;2.50;;;27.60;61.30;;;;;;4958538;28;20225;-78
2022/07/06 01:13:36;;;;;;;5.53;2.65;;;27.60;61.20;;;;;;4958570;28;20205;-77
2022/07/06 01:16:05;;;;;;;7.55;2.70;;;27.60;61.20;;;;;;4962662;28;20809;-77
2022/07/06 01:18:35;;;;;;;6.13;2.97;;;27.60;61.20;;;;;;4958221;28;21315;-77
2022/07/06 01:21:13;;;;;;;4.45;2.70;;;27.60;61.20;;;;;;4958853;28;20275;-77
2022/07/06 01:23:43;;;;;;;5.20;3.10;;;27.60;61.20;;;;;;4953810;28;21062;-77
2022/07/06 01:26:13;;;;;;;7.90;2.50;;;27.60;61.20;;;;;;4956413;28;20198;-76
2022/07/06 01:28:42;;;;;;;6.68;2.78;;;27.60;61.20;;;;;;4944967;28;20198;-77
2022/07/06 01:31:21;;;;;;;6.82;2.67;;;27.60;61.40;;;;;;4958343;28;20230;-76
2022/07/06 01:33:51;;;;;;;4.38;2.17;;;27.60;61.50;;;;;;4958819;28;20205;-76
2022/07/06 01:36:21;;;;;;;6.68;2.60;;;27.50;61.40;;;;;;4953984;28;20205;-76
2022/07/06 01:38:51;;;;;;;11.98;3.00;;;27.50;61.60;;;;;;4959671;28;20194;-77
2022/07/06 01:41:20;;;;;;;5.43;2.85;;;27.50;61.90;;;;;;4958603;28;20216;-77
2022/07/06 01:43:48;;;;;;;9.40;2.97;;;27.40;62.00;;;;;;4962690;28;20201;-76
2022/07/06 01:46:18;;;;;;;8.75;2.97;;;27.40;62.20;;;;;;4959245;28;20608;-76
2022/07/06 01:48:47;;;;;;;5.90;3.10;;;27.30;62.10;;;;;;4957439;28;20885;-77
2022/07/06 01:51:16;;;;;;;8.75;3.13;;;27.30;62.10;;;;;;4959545;28;20229;-76
2022/07/06 01:53:46;;;;;;;5.95;2.60;;;27.30;62.20;;;;;;4958149;28;20210;-77
2022/07/06 01:56:14;;;;;;;4.78;2.75;;;27.30;62.30;;;;;;4955809;28;20740;-77
2022/07/06 01:58:43;;;;;;;7.97;3.00;;;27.30;62.40;;;;;;4961957;28;20190;-77
2022/07/06 02:01:12;;;;;;;7.60;2.95;;;27.20;62.60;;;;;;4963602;28;20202;-77
2022/07/06 02:03:41;;;;;;;7.45;2.70;;;27.20;62.80;;;;;;4960211;28;20234;-77
2022/07/06 02:06:10;;;;;;;10.15;3.15;;;27.10;62.80;;;;;;4953746;28;20202;-77
2022/07/06 02:08:41;;;;;;;4.28;2.70;;;27.10;62.90;;;;;;4958633;28;20720;-77
2022/07/06 02:11:11;;;;;;;9.68;3.00;;;27.10;62.90;;;;;;4960926;28;20225;-77
2022/07/06 02:13:40;;;;;;;6.03;2.70;;;27.10;63.10;;;;;;4957793;28;20194;-76
2022/07/06 02:16:08;;;;;;;7.70;3.22;;;27.00;63.00;;;;;;4964796;28;20213;-77
2022/07/06 02:18:37;;;;;;;5.80;3.42;;;27.00;63.10;;;;;;4965703;28;20193;-77
2022/07/06 02:21:06;;;;;;;5.95;3.30;;;27.00;63.20;;;;;;4966408;28;20194;-77
2022/07/06 02:23:34;;;;;;;8.68;3.15;;;27.00;63.30;;;;;;4966468;28;20198;-77
2022/07/06 02:26:04;;;;;;;4.95;3.22;;;27.00;63.50;;;;;;4960664;28;20221;-77
2022/07/06 02:28:33;;;;;;;7.57;3.40;;;26.90;63.50;;;;;;4961118;28;20198;-77
2022/07/06 02:31:02;;;;;;;6.45;3.05;;;26.90;63.60;;;;;;4963080;28;20217;-77
2022/07/06 02:33:30;;;;;;;8.88;3.20;;;26.90;63.70;;;;;;4962146;28;20190;-77
2022/07/06 02:35:59;;;;;;;5.50;3.40;;;26.90;63.80;;;;;;4960307;28;20201;-76
2022/07/06 02:38:27;;;;;;;5.35;2.95;;;26.80;63.90;;;;;;4966749;28;20281;-77
2022/07/06 02:40:55;;;;;;;5.25;3.60;;;26.80;64.00;;;;;;4963620;28;20201;-76
2022/07/06 02:43:24;;;;;;;5.20;3.17;;;26.80;64.10;;;;;;4967282;28;20202;-77
2022/07/06 02:45:54;;;;;;;6.68;3.20;;;26.70;64.40;;;;;;4962589;28;20199;-77
2022/07/06 02:48:22;;;;;;;6.90;3.20;;;26.70;64.50;;;;;;4962302;28;20305;-77
2022/07/06 02:50:51;;;;;;;5.80;3.38;;;26.70;64.60;;;;;;4963463;28;20208;-77
2022/07/06 02:53:20;;;;;;;11.98;3.60;;;26.70;64.70;;;;;;4959984;28;20232;-77
2022/07/06 02:55:49;;;;;;;9.70;3.42;;;26.70;65.00;;;;;;4964392;28;20201;-77
2022/07/06 02:58:18;;;;;;;5.85;3.42;;;26.60;65.00;;;;;;4957899;28;20202;-78
2022/07/06 03:00:47;;;;;;;12.13;3.83;;;26.70;65.10;;;;;;4955099;28;20285;-77
2022/07/06 03:03:17;;;;;;;5.20;3.38;;;26.60;65.20;;;;;;4962430;28;20232;-77
2022/07/06 03:05:46;;;;;;;11.23;4.00;;;26.60;65.40;;;;;;4962359;28;20221;-77
2022/07/06 03:08:15;;;;;;;9.15;4.03;;;26.60;65.50;;;;;;4951972;28;20666;-77
2022/07/06 03:10:43;;;;;;;10.77;4.32;;;26.50;65.50;;;;;;4961013;28;20211;-77
2022/07/06 03:13:12;;;;;;;9.20;3.97;;;26.50;65.70;;;;;;4954535;28;20714;-77
2022/07/06 03:15:40;;;;;;;9.13;3.70;;;26.50;65.80;;;;;;4959642;28;20202;-77
2022/07/06 03:18:09;;;;;;;7.65;3.80;;;26.50;66.10;;;;;;4953777;28;20206;-77
2022/07/06 03:20:39;;;;;;;9.88;3.75;;;26.60;66.30;;;;;;4957832;28;20837;-77
2022/07/06 03:23:08;;;;;;;9.60;4.13;;;26.50;66.30;;;;;;4956858;28;20202;-78
2022/07/06 03:25:36;;;;;;;7.57;4.25;;;26.60;66.70;;;;;;4958001;28;20194;-77
2022/07/06 03:28:05;;;;;;;5.32;3.72;;;26.60;66.90;;;;;;4963831;28;20213;-77
2022/07/06 03:30:33;;;;;;;8.60;4.22;;;26.60;66.90;;;;;;4958949;28;20205;-77
2022/07/06 03:33:02;;;;;;;8.15;4.07;;;26.60;66.80;;;;;;4963053;28;20228;-77
2022/07/06 03:35:30;;;;;;;7.07;4.70;;;26.60;66.80;;;;;;4960938;28;20190;-77
2022/07/06 03:38:00;;;;;;;10.90;4.45;;;26.60;67.90;;;;;;4961778;28;20208;-78
2022/07/06 03:40:28;;;;;;;6.03;4.00;;;26.70;67.90;;;;;;4960014;28;20225;-77
2022/07/06 03:42:57;;;;;;;8.23;4.43;;;26.70;67.70;;;;;;4966572;28;20194;-76
2022/07/06 03:45:25;;;;;;;8.85;4.35;;;26.70;67.90;;;;;;4961338;28;20815;-77
2022/07/06 03:47:54;;;;;;;10.05;4.28;;;26.80;68.20;;;;;;4959129;28;20205;-77
2022/07/06 03:50:22;;;;;;;7.07;4.78;;;26.80;68.30;;;;;;4961869;28;20201;-76
2022/07/06 03:52:50;;;;;;;6.82;4.38;;;26.80;68.30;;;;;;4962774;28;20314;-77
2022/07/06 03:55:20;;;;;;;11.45;4.43;;;26.80;69.20;;;;;;4958080;28;20201;-77
2022/07/06 03:57:49;;;;;;;11.07;4.53;;;26.90;68.30;;;;;;4965323;28;20206;-77
2022/07/06 04:00:17;;;;;;;11.07;4.50;;;26.90;68.10;;;;;;4960298;28;20717;-77
2022/07/06 04:02:45;;;;;;;8.68;4.13;;;26.90;68.30;;;;;;4965086;28;20855;-76
2022/07/06 04:05:15;;;;;;;8.68;4.05;;;27.00;68.20;;;;;;4957908;28;20276;-77
2022/07/06 04:07:43;;;;;;;7.97;4.05;;;27.00;68.00;;;;;;4962257;28;20205;-77
2022/07/06 04:10:12;;;;;;;7.15;4.45;;;27.00;68.10;;;;;;4954175;28;20206;-77
2022/07/06 04:12:45;;;;;;;6.50;4.53;;;27.10;68.30;;;;;;4962328;28;20224;-76
2022/07/06 04:15:14;;;;;;;19.95;5.50;;;27.00;68.50;;;;;;4962968;28;20190;-77
2022/07/06 04:17:55;;;;;;;8.45;4.18;;;27.10;68.70;;;;;;4955158;28;20202;-77
2022/07/06 04:20:25;;;;;;;11.00;5.05;;;27.10;68.50;;;;;;4965752;28;20202;-75
2022/07/06 04:22:53;;;;;;;7.68;4.38;;;27.10;68.80;;;;;;4960534;28;20194;-77
2022/07/06 04:25:22;;;;;;;13.65;5.18;;;27.00;68.60;;;;;;4962978;28;20202;-80
2022/07/06 04:27:54;;;;;;;15.13;4.47;;;27.00;68.50;;;;;;4963740;28;20210;-76
2022/07/06 04:30:25;;;;;;;13.07;5.10;;;27.00;68.50;;;;;;4965033;28;20217;-77
2022/07/06 04:32:55;;;;;;;14.50;4.70;;;26.90;68.50;;;;;;4964756;28;20234;-77
2022/07/06 04:35:23;;;;;;;7.63;4.50;;;26.90;68.60;;;;;;4965082;28;20206;-75
2022/07/06 04:37:51;;;;;;;8.68;4.55;;;26.90;68.70;;;;;;4962807;28;20190;-76
2022/07/06 04:40:20;;;;;;;8.25;4.63;;;26.90;68.60;;;;;;4965017;28;20205;-77
2022/07/06 04:42:48;;;;;;;16.85;5.78;;;26.90;68.60;;;;;;4957190;28;20212;-76
2022/07/06 04:45:18;;;;;;;13.23;6.32;;;26.90;68.40;;;;;;4965420;28;20212;-76
2022/07/06 04:47:47;;;;;;;9.82;4.55;;;26.90;68.40;;;;;;4959681;28;20213;-75
2022/07/06 04:50:19;;;;;;;12.30;6.00;;;26.90;68.40;;;;;;4966485;28;20574;-77
2022/07/06 04:52:48;;;;;;;15.35;6.72;;;26.90;68.40;;;;;;4958019;28;20229;-77
2022/07/06 04:55:16;;;;;;;15.38;6.38;;;26.90;68.40;;;;;;4959200;28;20224;-77
2022/07/06 04:57:45;;;;;;;14.30;6.40;;;26.90;68.30;;;;;;4960146;28;20197;-77
2022/07/06 05:00:14;;;;;;;10.07;4.80;;;26.90;68.20;;;;;;4958435;28;20201;-78
2022/07/06 05:02:44;;;;;;;11.10;4.22;;;26.90;68.30;;;;;;4960764;28;20198;-77
2022/07/06 05:05:12;;;;;;;25.92;4.32;;;27.00;68.30;;;;;;4959756;28;20197;-76
2022/07/06 05:07:41;;;;;;;12.75;4.35;;;27.00;68.20;;;;;;4961519;28;20204;-77
2022/07/06 05:10:11;;;;;;;7.72;4.55;;;27.00;68.00;;;;;;4954287;28;20202;-77
2022/07/06 05:12:40;;;;;;;9.73;4.35;;;27.10;68.10;;;;;;4957775;28;20197;-77
2022/07/06 05:15:09;;;;;;;15.15;4.82;;;27.10;67.90;;;;;;4965789;28;20214;-77
2022/07/06 05:17:38;;;;;;;11.88;4.68;;;27.10;67.80;;;;;;4956537;28;20204;-78
2022/07/06 05:20:09;;;;;;;9.00;3.50;;;27.20;68.00;;;;;;4968684;28;20285;-77
2022/07/06 05:22:37;;;;;;;15.93;6.40;;;27.20;67.90;;;;;;4963147;28;20240;-76
2022/07/06 05:25:13;;;;;;;13.27;4.88;;;27.20;68.60;;;;;;4960947;28;20267;-76
2022/07/06 05:27:41;;;;;;;14.60;4.38;;;27.30;67.60;;;;;;4963468;28;20278;-76
2022/07/06 05:30:11;;;;;;;12.23;4.43;;;27.30;67.70;;;;;;4958727;28;20194;-77
2022/07/06 05:32:39;;;;;;;12.25;4.60;;;27.40;67.50;;;;;;4961587;28;20710;-77
2022/07/06 05:35:10;;;;;;;9.38;4.60;;;27.40;67.50;;;;;;4963720;28;20256;-78
2022/07/06 05:37:59;;;;;;;11.02;4.90;;;27.40;67.50;;;;;;4955141;28;20665;-76
2022/07/06 05:40:27;;;;;;;12.10;4.68;;;27.50;67.50;;;;;;4965637;28;20193;-76
2022/07/06 05:42:55;;;;;;;9.25;4.43;;;27.50;67.50;;;;;;4964094;28;20690;-77
2022/07/06 05:45:24;;;;;;;12.10;5.00;;;27.60;67.60;;;;;;4965038;28;20212;-76
2022/07/06 05:50:40;;;;;;;14.05;4.40;;;27.70;67.40;;;;;;4963300;28;20200;-77
2022/07/06 05:53:09;;;;;;;8.63;4.60;;;27.70;67.10;;;;;;4965004;28;20210;-76
2022/07/06 05:55:46;;;;;;;8.27;3.85;;;27.80;67.10;;;;;;4966933;28;20292;-76
2022/07/06 05:58:15;;;;;;;9.43;4.93;;;27.80;67.90;;;;;;4967429;28;20193;-76
2022/07/06 06:00:43;;;;;;;15.38;5.20;;;27.90;67.10;;;;;;4967878;28;20558;-76
2022/07/06 06:03:12;;;;;;;10.13;4.50;;;27.90;67.30;;;;;;4961484;28;20225;-77
2022/07/06 06:05:42;;;;;;;9.30;5.10;;;28.00;67.50;;;;;;4963947;28;20204;-75
2022/07/06 06:08:10;;;;;;;9.23;4.65;;;28.00;67.00;;;;;;4963749;28;20228;-76
2022/07/06 06:10:39;;;;;;;11.40;4.65;;;28.00;67.00;;;;;;4964632;28;20213;-75
2022/07/06 06:13:07;;;;;;;13.52;4.60;;;28.10;67.10;;;;;;4967548;28;20207;-74
2022/07/06 06:15:36;;;;;;;9.73;4.57;;;28.10;66.90;;;;;;4964878;28;20809;-74
2022/07/06 06:18:04;;;;;;;7.72;4.90;;;28.20;66.80;;;;;;4967241;28;20605;-74
2022/07/06 06:20:33;;;;;;;8.63;4.40;;;28.20;66.50;;;;;;4953552;28;20819;-76
2022/07/06 06:23:05;;;;;;;11.52;4.88;;;28.30;66.40;;;;;;4963290;28;20190;-75
2022/07/06 06:25:35;;;;;;;10.95;4.38;;;28.40;66.30;;;;;;4962742;28;20200;-75
2022/07/06 06:28:04;;;;;;;8.27;4.28;;;28.40;66.10;;;;;;4966849;28;20205;-78
2022/07/06 06:30:33;;;;;;;8.65;4.50;;;28.50;65.80;;;;;;4965450;28;20286;-77
2022/07/06 06:33:08;;;;;;;11.90;4.78;;;28.50;65.50;;;;;;4967991;28;20201;-77
2022/07/06 06:35:37;;;;;;;9.32;4.68;;;28.50;65.50;;;;;;4965220;28;20269;-77
2022/07/06 06:38:07;;;;;;;10.55;4.05;;;28.60;65.10;;;;;;4965515;28;20209;-77
2022/07/06 06:40:35;;;;;;;14.82;4.82;;;28.70;65.80;;;;;;4969573;28;20202;-77
2022/07/06 06:43:04;;;;;;;11.23;4.13;;;28.70;64.60;;;;;;4968573;28;20286;-78
2022/07/06 06:45:32;;;;;;;8.25;4.55;;;28.80;64.60;;;;;;4966884;28;20196;-77
2022/07/06 06:48:01;;;;;;;8.85;4.30;;;28.80;64.40;;;;;;4968311;28;20849;-76
2022/07/06 06:50:29;;;;;;;11.20;4.13;;;28.90;63.80;;;;;;4966383;28;20186;-77
2022/07/06 06:53:10;;;;;;;12.57;4.53;;;28.90;63.00;;;;;;4965448;28;20302;-79
2022/07/06 06:55:38;;;;;;;13.45;4.22;;;29.00;62.90;;;;;;4949116;29;20701;-78
2022/07/06 06:58:07;;;;;;;8.20;4.53;;;29.00;62.70;;;;;;4949248;28;20213;-78
2022/07/06 07:00:35;;;;;;;9.52;4.35;;;29.00;62.60;;;;;;4945789;28;20715;-78
2022/07/06 07:03:04;;;;;;;8.18;4.10;;;29.10;62.40;;;;;;4944992;29;20227;-78
2022/07/06 07:05:32;;;;;;;8.35;4.20;;;29.10;62.30;;;;;;4946781;28;20187;-78
2022/07/06 07:08:00;;;;;;;10.77;3.78;;;29.20;62.20;;;;;;4946464;28;20285;-78
2022/07/06 07:10:34;;;;;;;8.38;4.30;;;29.20;61.60;;;;;;4949074;29;20858;-77
2022/07/06 07:13:02;;;;;;;5.53;3.60;;;29.20;61.60;;;;;;4947143;29;20199;-78
2022/07/06 07:15:30;;;;;;;11.73;3.70;;;29.30;60.90;;;;;;4948214;28;20238;-78
2022/07/06 07:17:59;;;;;;;7.95;3.95;;;29.30;61.10;;;;;;4949270;29;20604;-77
2022/07/06 07:20:29;;;;;;;8.52;3.72;;;29.40;61.30;;;;;;4948386;28;20250;-77
2022/07/06 07:22:58;;;;;;;7.28;3.58;;;29.50;61.00;;;;;;4944786;28;20194;-77
2022/07/06 07:25:26;;;;;;;9.48;3.35;;;29.50;60.60;;;;;;4941386;29;20887;-77
2022/07/06 07:27:56;;;;;;;8.90;3.80;;;29.60;60.30;;;;;;4939694;29;20198;-77
2022/07/06 07:30:25;;;;;;;8.48;4.03;;;29.60;59.70;;;;;;4944897;28;20899;-75
2022/07/06 07:32:55;;;;;;;8.68;3.70;;;29.70;60.00;;;;;;4934344;28;20205;-78
2022/07/06 07:35:24;;;;;;;8.00;4.05;;;29.70;60.00;;;;;;4948843;28;20266;-77
2022/07/06 07:37:52;;;;;;;9.70;3.40;;;29.80;59.90;;;;;;4935085;28;20286;-77
2022/07/06 07:40:21;;;;;;;6.53;3.88;;;29.80;59.70;;;;;;4950062;28;20225;-76
2022/07/06 07:42:50;;;;;;;10.32;4.00;;;29.90;60.50;;;;;;4949724;28;20194;-78
2022/07/06 07:45:20;;;;;;;13.82;4.10;;;29.90;59.70;;;;;;4948433;28;20210;-76
2022/07/06 07:47:48;;;;;;;12.50;4.60;;;29.90;59.50;;;;;;4945255;28;20198;-77
2022/07/06 07:50:18;;;;;;;7.82;4.28;;;30.00;59.60;;;;;;4946706;28;20198;-77
2022/07/06 07:52:46;;;;;;;8.23;4.05;;;30.00;59.40;;;;;;4945268;29;20209;-77
2022/07/06 07:55:14;;;;;;;15.30;4.88;;;30.10;59.40;;;;;;4945008;29;20226;-77
2022/07/06 07:58:03;;;;;;;11.80;4.47;;;30.10;59.40;;;;;;4947116;29;20199;-79
2022/07/06 08:00:33;;;;;;;6.57;4.15;;;30.10;59.20;;;;;;4944982;28;20552;-77
2022/07/06 08:03:01;;;;;;;6.47;4.07;;;30.10;58.90;;;;;;4942766;28;20249;-77
2022/07/06 08:05:30;;;;;;;9.73;4.53;;;30.10;58.80;;;;;;4909340;29;20238;-79
2022/07/06 08:07:58;;;;;;;6.70;4.07;;;30.20;58.90;;;;;;4944487;29;20198;-77
2022/07/06 08:10:27;;;;;;;10.27;4.53;;;30.20;58.50;;;;;;4947128;28;20198;-78
2022/07/06 08:12:55;;;;;;;8.43;4.43;;;30.20;58.60;;;;;;4948016;29;20205;-78
2022/07/06 08:15:23;;;;;;;6.47;4.28;;;30.30;58.80;;;;;;4944687;28;21192;-75
2022/07/06 08:17:53;;;;;;;9.77;4.00;;;30.30;58.40;;;;;;4945433;28;20203;-77
2022/07/06 08:20:22;;;;;;;8.75;4.30;;;30.30;58.60;;;;;;4942008;28;20198;-77
2022/07/06 08:22:50;;;;;;;8.02;4.15;;;30.40;58.70;;;;;;4944554;28;20196;-77
2022/07/06 08:25:19;;;;;;;6.53;4.07;;;30.40;58.80;;;;;;4946708;28;20201;-77
2022/07/06 08:27:48;;;;;;;10.85;4.68;;;30.50;58.80;;;;;;4948783;28;20203;-77
2022/07/06 08:30:16;;;;;;;7.53;4.10;;;30.50;58.40;;;;;;4945259;28;20201;-77
2022/07/06 08:32:45;;;;;;;5.80;4.00;;;30.60;58.20;;;;;;4950440;29;20202;-78
2022/07/06 08:35:34;;;;;;;6.75;4.03;;;30.60;58.20;;;;;;4945897;28;20246;-77
2022/07/06 08:38:03;;;;;;;6.47;4.18;;;30.60;58.20;;;;;;4951760;29;20206;-78
2022/07/06 08:40:34;;;;;;;10.18;4.45;;;30.70;58.30;;;;;;4939579;28;20212;-79
2022/07/06 08:43:08;;;;;;;8.95;5.50;;;30.70;58.30;;;;;;4947804;28;20210;-77
2022/07/06 08:45:36;;;;;;;8.52;4.60;;;30.70;58.20;;;;;;4940967;28;20202;-77
2022/07/06 08:48:07;;;;;;;7.57;4.70;;;30.80;58.20;;;;;;4950675;29;21117;-77
2022/07/06 08:50:37;;;;;;;8.75;5.10;;;30.80;58.40;;;;;;4946799;28;20216;-79
2022/07/06 08:53:06;;;;;;;10.05;4.88;;;30.90;58.50;;;;;;4939550;28;20885;-78
2022/07/06 08:55:35;;;;;;;7.43;4.80;;;30.90;58.20;;;;;;4944214;28;20244;-78
2022/07/06 08:58:06;;;;;;;8.68;5.25;;;30.90;58.30;;;;;;4944076;28;20289;-77
2022/07/06 09:00:37;;;;;;;8.30;4.45;;;30.90;58.30;;;;;;4949966;28;20197;-76
2022/07/06 09:03:06;;;;;;;6.78;4.75;;;31.10;58.50;;;;;;4937226;28;20249;-76
2022/07/06 09:05:37;;;;;;;8.18;4.82;;;31.10;58.70;;;;;;4950080;29;20230;-78
2022/07/06 09:08:06;;;;;;;7.03;5.28;;;31.20;58.90;;;;;;4949171;29;20763;-78
2022/07/06 09:10:34;;;;;;;12.32;7.03;;;31.20;58.60;;;;;;4950222;29;20222;-76
2022/07/06 09:13:04;;;;;;;10.80;6.82;;;31.20;59.00;;;;;;4947741;28;20209;-77
2022/07/06 09:15:33;;;;;;;10.95;7.55;;;31.30;59.70;;;;;;4946864;28;20258;-78
2022/07/06 09:18:02;;;;;;;13.02;7.05;;;31.40;59.80;;;;;;4952237;28;20198;-77
2022/07/06 09:20:31;;;;;;;10.30;7.22;;;31.40;59.90;;;;;;4949617;29;20277;-78
2022/07/06 09:23:03;;;;;;;9.32;6.80;;;31.40;60.10;;;;;;4944974;29;20281;-77
2022/07/06 09:25:31;;;;;;;8.35;6.00;;;31.30;60.00;;;;;;4940300;29;20302;-76
2022/07/06 09:28:00;;;;;;;11.05;6.25;;;31.30;60.00;;;;;;4944319;28;20202;-75
2022/07/06 09:30:30;;;;;;;14.48;6.65;;;31.30;59.80;;;;;;4941029;28;20202;-76
2022/07/06 09:32:59;;;;;;;10.88;6.50;;;31.40;59.80;;;;;;4942570;28;20206;-76
2022/07/06 09:35:30;;;;;;;10.98;6.80;;;31.40;60.80;;;;;;4941813;28;20616;-77
2022/07/06 09:38:04;;;;;;;9.27;6.22;;;31.50;60.90;;;;;;4942865;28;20187;-77
2022/07/06 09:40:35;;;;;;;9.57;6.47;;;31.50;61.00;;;;;;4948531;28;20189;-80
2022/07/06 09:43:12;;;;;;;15.48;7.47;;;31.60;61.00;;;;;;4934817;28;20198;-76
2022/07/06 09:45:42;;;;;;;9.98;6.38;;;31.60;60.60;;;;;;4953494;28;20190;-77
2022/07/06 09:48:13;;;;;;;10.60;6.10;;;31.70;60.90;;;;;;4950220;28;20213;-77
2022/07/06 09:50:44;;;;;;;9.18;5.75;;;31.80;61.30;;;;;;4946511;28;20187;-80
2022/07/06 09:53:14;;;;;;;9.55;6.55;;;31.80;61.20;;;;;;4933991;28;20190;-78
2022/07/06 09:55:46;;;;;;;10.75;7.13;;;31.90;61.10;;;;;;4939060;28;20246;-77
2022/07/06 09:58:17;;;;;;;8.60;6.43;;;31.90;61.90;;;;;;4940591;28;20187;-80
2022/07/06 10:01:27;;;;;;;10.38;6.30;;;31.90;61.90;;;;;;4923877;28;20218;-79
2022/07/06 10:03:55;;;;;;;11.95;6.43;;;31.90;62.00;;;;;;4940261;28;20281;-79
2022/07/06 10:06:25;;;;;;;10.43;6.75;;;31.90;62.40;;;;;;4937224;28;20608;-77
2022/07/06 10:08:58;;;;;;;11.23;6.15;;;32.00;62.40;;;;;;4944154;28;20198;-77
2022/07/06 10:11:27;;;;;;;11.02;5.90;;;32.10;62.50;;;;;;4943730;28;20665;-80
2022/07/06 10:13:57;;;;;;;11.27;6.10;;;32.00;62.00;;;;;;4937587;28;20457;-77
2022/07/06 10:16:29;;;;;;;6.75;5.32;;;32.00;62.00;;;;;;4936779;28;20334;-79
2022/07/06 10:18:58;;;;;;;9.35;5.60;;;32.00;61.90;;;;;;4943638;28;20198;-77
2022/07/06 10:21:27;;;;;;;7.53;5.78;;;32.00;61.80;;;;;;4940041;29;20230;-79
2022/07/06 10:24:03;;;;;;;9.07;5.90;;;32.00;61.80;;;;;;4942150;28;20209;-79
2022/07/06 10:26:33;;;;;;;12.05;5.97;;;32.10;62.00;;;;;;4940844;28;20269;-80
2022/07/06 10:29:02;;;;;;;8.25;5.63;;;32.20;61.90;;;;;;4942621;28;20203;-76
2022/07/06 10:31:31;;;;;;;7.22;5.25;;;32.20;61.70;;;;;;4939649;28;20191;-78
2022/07/06 10:34:02;;;;;;;7.47;5.63;;;32.20;61.40;;;;;;4941176;28;20230;-77
2022/07/06 10:36:30;;;;;;;10.52;5.93;;;32.20;61.30;;;;;;4949001;29;20234;-76
2022/07/06 10:41:02;;;;;;;8.38;5.57;;;32.20;61.30;;;;;;4950707;28;20209;-78
2022/07/06 10:41:50;;;;;;;7.82;5.65;;;32.10;61.30;;;;;;4941744;28;20229;-77
2022/07/06 10:44:20;;;;;;;7.72;5.30;;;32.10;61.30;;;;;;4946794;28;20202;-77
2022/07/06 10:46:56;;;;;;;11.15;5.97;;;32.20;62.00;;;;;;4937165;28;20233;-76
2022/07/06 10:49:28;;;;;;;9.48;5.95;;;32.10;61.00;;;;;;4945799;29;20198;-81
2022/07/06 10:52:19;;;;;;;10.18;5.35;;;32.10;61.00;;;;;;4941714;28;20195;-79
2022/07/06 10:54:51;;;;;;;8.70;5.47;;;32.10;60.80;;;;;;4947668;29;20199;-76
2022/07/06 10:57:20;;;;;;;9.23;5.20;;;32.10;60.40;;;;;;4935222;28;20222;-79
2022/07/06 11:00:02;;;;;;;10.02;5.50;;;32.00;60.60;;;;;;4945709;28;20711;-78
2022/07/06 11:02:39;;;;;;;10.70;5.47;;;32.00;61.10;;;;;;4945676;28;20190;-79
2022/07/06 11:05:13;;;;;;;11.82;6.18;;;32.00;61.00;;;;;;4946709;28;20222;-75
2022/07/06 11:07:51;;;;;;;9.20;5.68;;;32.00;61.10;;;;;;4939647;28;20233;-77
2022/07/06 11:10:24;;;;;;;8.57;5.68;;;32.00;61.20;;;;;;4942788;28;20194;-74
2022/07/06 11:12:59;;;;;;;9.60;5.85;;;32.00;60.60;;;;;;4940545;28;20191;-77
2022/07/06 11:15:49;;;;;;;9.45;5.35;;;32.00;61.10;;;;;;4941728;28;20197;-76
2022/07/06 11:18:20;;;;;;;12.98;6.85;;;32.00;60.90;;;;;;4943855;28;20645;-79
2022/07/06 11:21:16;;;;;;;34.72;10.25;;;32.00;61.10;;;;;;4947948;29;20295;-81
2022/07/06 11:23:48;;;;;;;11.32;6.30;;;32.00;60.80;;;;;;4932763;28;20209;-79
2022/07/06 11:26:19;;;;;;;17.55;6.53;;;32.00;60.90;;;;;;4938104;28;20197;-80
2022/07/06 11:28:49;;;;;;;16.60;6.85;;;32.00;60.40;;;;;;4942920;28;20222;-78
2022/07/06 11:31:18;;;;;;;14.07;6.53;;;32.10;60.40;;;;;;4935610;29;20648;-79
2022/07/06 11:33:47;;;;;;;23.73;8.98;;;32.20;60.70;;;;;;4947551;29;20302;-77
2022/07/06 11:36:18;;;;;;;11.68;5.90;;;32.20;60.40;;;;;;4942289;28;20222;-80
2022/07/06 11:38:47;;;;;;;16.13;7.30;;;32.20;59.70;;;;;;4945125;28;20700;-78
2022/07/06 11:41:19;;;;;;;9.82;5.55;;;32.30;60.00;;;;;;4938279;28;20198;-78
2022/07/06 11:43:51;;;;;;;11.85;5.70;;;32.30;59.80;;;;;;4947045;29;20893;-76
2022/07/06 11:46:25;;;;;;;11.02;6.63;;;32.40;59.30;;;;;;4947609;28;20200;-78
2022/07/06 11:48:57;;;;;;;17.55;6.43;;;32.40;59.20;;;;;;4946542;28;20756;-79
2022/07/06 11:51:27;;;;;;;18.27;7.10;;;32.40;59.00;;;;;;4947276;28;20291;-77
2022/07/06 11:53:58;;;;;;;13.02;7.30;;;32.40;59.30;;;;;;4946872;28;20213;-78
2022/07/06 11:56:28;;;;;;;9.13;5.45;;;32.40;59.00;;;;;;4945450;28;20408;-78
2022/07/06 11:58:58;;;;;;;11.00;5.95;;;32.40;59.30;;;;;;4946323;28;20257;-79
2022/07/06 12:01:30;;;;;;;11.52;5.55;;;32.30;58.70;;;;;;4944787;28;20245;-78
2022/07/06 12:04:00;;;;;;;7.75;5.45;;;32.30;59.00;;;;;;4940131;28;20317;-78
2022/07/06 12:06:29;;;;;;;10.10;5.70;;;32.30;59.20;;;;;;4939580;28;20198;-81
2022/07/06 12:08:59;;;;;;;8.18;5.38;;;32.30;59.30;;;;;;4938531;28;20569;-77
2022/07/06 12:11:30;;;;;;;9.48;6.00;;;32.40;59.10;;;;;;4941930;28;20191;-78
2022/07/06 12:14:14;;;;;;;11.00;6.25;;;32.50;58.60;;;;;;4947501;29;20234;-78
2022/07/06 12:16:43;;;;;;;11.32;5.97;;;32.50;58.40;;;;;;4940868;28;20228;-79
2022/07/06 12:19:12;;;;;;;8.35;5.40;;;32.40;58.50;;;;;;4942112;28;20763;-76
2022/07/06 12:21:45;;;;;;;8.27;5.60;;;32.50;58.60;;;;;;4944221;28;20571;-80
2022/07/06 12:24:20;;;;;;;9.85;5.60;;;32.50;58.20;;;;;;4944230;28;20230;-79
2022/07/06 12:26:51;;;;;;;9.52;4.82;;;32.50;58.10;;;;;;4939337;28;20494;-79
2022/07/06 12:29:21;;;;;;;6.85;4.88;;;32.50;57.80;;;;;;4942010;28;20202;-79
2022/07/06 12:31:52;;;;;;;6.80;5.35;;;32.50;57.60;;;;;;4942903;29;20202;-80
2022/07/06 12:34:22;;;;;;;7.88;5.50;;;32.50;57.60;;;;;;4944188;28;20237;-80
2022/07/06 12:36:52;;;;;;;8.55;5.65;;;32.50;57.90;;;;;;4940423;29;20226;-79
2022/07/06 12:39:22;;;;;;;9.55;4.93;;;32.50;58.10;;;;;;4940456;28;20191;-81
2022/07/06 12:41:54;;;;;;;9.45;5.38;;;32.60;58.00;;;;;;4946153;28;20748;-80
2022/07/06 12:44:24;;;;;;;13.90;5.07;;;32.70;57.30;;;;;;4948156;29;20639;-83
2022/07/06 12:47:03;;;;;;;6.75;4.68;;;32.60;56.90;;;;;;4948324;29;20216;-85
2022/07/06 12:49:33;;;;;;;7.82;4.72;;;32.50;56.80;;;;;;4944733;28;20198;-83
2022/07/06 12:52:03;;;;;;;9.10;5.13;;;32.50;56.80;;;;;;4948628;28;20198;-82
2022/07/06 12:54:34;;;;;;;9.77;4.93;;;32.50;56.80;;;;;;4944911;28;20210;-84
2022/07/06 12:57:12;;;;;;;8.27;5.15;;;32.50;56.50;;;;;;4947924;29;20289;-81
2022/07/06 12:59:43;;;;;;;5.40;4.43;;;32.60;56.70;;;;;;4948592;28;20190;-85
2022/07/06 13:02:19;;;;;;;10.68;4.93;;;32.70;56.90;;;;;;4950333;28;20202;-86